sensor_id;sensor_type;location;lat;lon;timestamp;pressure;altitude;pressure_sealevel;temperature;humidity
19783;BME280;10051;40.294;-3.754;2023-04-05T00:00:09;94238.22;;;12.98;20.58
19783;BME280;10051;40.294;-3.754;2023-04-05T00:02:35;94259.50;;;13.02;20.83
19783;BME280;10051;40.294;-3.754;2023-04-05T00:05:04;94241.28;;;12.72;21.26
19783;BME280;10051;40.294;-3.754;2023-04-05T00:07:30;94256.19;;;12.63;21.66
19783;BME280;10051;40.294;-3.754;2023-04-05T00:09:58;94265.28;;;12.57;21.37
19783;BME280;10051;40.294;-3.754;2023-04-05T00:12:24;94216.06;;;12.33;21.81
19783;BME280;10051;40.294;-3.754;2023-04-05T00:14:49;94264.69;;;12.60;21.66
19783;BME280;10051;40.294;-3.754;2023-04-05T00:17:15;94270.28;;;12.72;21.89
19783;BME280;10051;40.294;-3.754;2023-04-05T00:19:42;94250.53;;;12.56;21.80
19783;BME280;10051;40.294;-3.754;2023-04-05T00:22:09;94270.81;;;12.55;21.98
19783;BME280;10051;40.294;-3.754;2023-04-05T00:24:36;94276.22;;;12.64;21.81
19783;BME280;10051;40.294;-3.754;2023-04-05T00:27:03;94254.53;;;12.34;21.98
19783;BME280;10051;40.294;-3.754;2023-04-05T00:29:29;94266.94;;;12.33;21.97
19783;BME280;10051;40.294;-3.754;2023-04-05T00:31:55;94276.47;;;12.48;22.44
19783;BME280;10051;40.294;-3.754;2023-04-05T00:34:20;94280.03;;;12.39;22.17
19783;BME280;10051;40.294;-3.754;2023-04-05T00:36:46;94279.41;;;12.28;22.01
19783;BME280;10051;40.294;-3.754;2023-04-05T00:39:14;94265.84;;;11.96;22.52
19783;BME280;10051;40.294;-3.754;2023-04-05T00:41:40;94282.03;;;12.09;22.33
19783;BME280;10051;40.294;-3.754;2023-04-05T00:44:05;94243.28;;;11.90;21.74
19783;BME280;10051;40.294;-3.754;2023-04-05T00:46:35;94287.41;;;11.98;21.62
19783;BME280;10051;40.294;-3.754;2023-04-05T00:49:03;94282.50;;;11.92;21.55
19783;BME280;10051;40.294;-3.754;2023-04-05T00:51:30;94253.50;;;11.72;21.82
19783;BME280;10051;40.294;-3.754;2023-04-05T00:53:59;94268.66;;;11.62;21.14
19783;BME280;10051;40.294;-3.754;2023-04-05T00:56:25;94267.91;;;11.56;21.35
19783;BME280;10051;40.294;-3.754;2023-04-05T00:58:52;94283.75;;;11.75;21.54
19783;BME280;10051;40.294;-3.754;2023-04-05T01:01:19;94289.56;;;11.96;21.22
19783;BME280;10051;40.294;-3.754;2023-04-05T01:03:52;94290.47;;;11.86;21.12
19783;BME280;10051;40.294;-3.754;2023-04-05T01:06:38;94288.69;;;11.82;21.51
19783;BME280;10051;40.294;-3.754;2023-04-05T01:11:57;94282.31;;;11.64;22.09
19783;BME280;10051;40.294;-3.754;2023-04-05T01:14:25;94271.97;;;11.48;21.95
19783;BME280;10051;40.294;-3.754;2023-04-05T01:16:50;94288.22;;;11.31;21.74
19783;BME280;10051;40.294;-3.754;2023-04-05T01:19:27;94273.25;;;11.02;22.26
19783;BME280;10051;40.294;-3.754;2023-04-05T01:22:56;94286.94;;;10.99;22.99
19783;BME280;10051;40.294;-3.754;2023-04-05T01:30:34;94264.13;;;11.19;22.71
19783;BME280;10051;40.294;-3.754;2023-04-05T01:38:22;94249.16;;;10.90;22.71
19783;BME280;10051;40.294;-3.754;2023-04-05T01:40:50;94276.69;;;10.97;23.12
19783;BME280;10051;40.294;-3.754;2023-04-05T01:43:17;94271.59;;;11.06;22.75
19783;BME280;10051;40.294;-3.754;2023-04-05T01:45:43;94282.06;;;11.11;23.00
19783;BME280;10051;40.294;-3.754;2023-04-05T01:48:10;94285.78;;;11.10;23.06
19783;BME280;10051;40.294;-3.754;2023-04-05T01:50:36;94238.16;;;10.53;23.40
19783;BME280;10051;40.294;-3.754;2023-04-05T01:53:01;94274.25;;;10.77;23.38
19783;BME280;10051;40.294;-3.754;2023-04-05T01:55:27;94282.44;;;10.70;24.02
19783;BME280;10051;40.294;-3.754;2023-04-05T01:57:54;94262.91;;;10.47;23.80
19783;BME280;10051;40.294;-3.754;2023-04-05T02:00:20;94277.66;;;10.43;23.97
19783;BME280;10051;40.294;-3.754;2023-04-05T02:02:46;94246.84;;;10.08;24.20
19783;BME280;10051;40.294;-3.754;2023-04-05T02:05:12;94283.56;;;10.19;24.16
19783;BME280;10051;40.294;-3.754;2023-04-05T02:07:37;94272.56;;;10.17;24.43
19783;BME280;10051;40.294;-3.754;2023-04-05T02:10:03;94235.78;;;10.11;24.03
19783;BME280;10051;40.294;-3.754;2023-04-05T02:12:29;94275.34;;;10.70;23.78
19783;BME280;10051;40.294;-3.754;2023-04-05T02:14:55;94251.44;;;10.67;23.44
19783;BME280;10051;40.294;-3.754;2023-04-05T02:17:20;94251.34;;;11.07;23.16
19783;BME280;10051;40.294;-3.754;2023-04-05T02:19:46;94225.59;;;11.04;22.80
19783;BME280;10051;40.294;-3.754;2023-04-05T02:22:12;94263.97;;;11.34;22.12
19783;BME280;10051;40.294;-3.754;2023-04-05T02:24:38;94227.38;;;11.08;22.41
19783;BME280;10051;40.294;-3.754;2023-04-05T02:27:04;94250.50;;;11.11;22.12
19783;BME280;10051;40.294;-3.754;2023-04-05T02:29:29;94263.88;;;10.91;23.00
19783;BME280;10051;40.294;-3.754;2023-04-05T02:31:56;94240.09;;;10.37;23.06
19783;BME280;10051;40.294;-3.754;2023-04-05T02:34:22;94270.31;;;10.39;23.50
19783;BME280;10051;40.294;-3.754;2023-04-05T02:36:50;94262.25;;;10.65;23.45
19783;BME280;10051;40.294;-3.754;2023-04-05T02:39:17;94231.75;;;10.64;23.20
19783;BME280;10051;40.294;-3.754;2023-04-05T02:41:42;94233.06;;;10.62;22.88
19783;BME280;10051;40.294;-3.754;2023-04-05T02:44:08;94267.00;;;10.93;23.13
19783;BME280;10051;40.294;-3.754;2023-04-05T02:46:33;94260.50;;;11.09;22.92
19783;BME280;10051;40.294;-3.754;2023-04-05T02:49:02;94241.41;;;10.98;22.97
19783;BME280;10051;40.294;-3.754;2023-04-05T02:51:30;94256.44;;;10.98;23.01
19783;BME280;10051;40.294;-3.754;2023-04-05T02:54:02;94254.66;;;10.88;23.12
19783;BME280;10051;40.294;-3.754;2023-04-05T02:56:28;94259.28;;;10.72;23.42
19783;BME280;10051;40.294;-3.754;2023-04-05T02:58:54;94227.34;;;10.20;23.59
19783;BME280;10051;40.294;-3.754;2023-04-05T03:01:20;94260.44;;;10.21;24.23
19783;BME280;10051;40.294;-3.754;2023-04-05T03:03:46;94273.50;;;10.36;25.67
19783;BME280;10051;40.294;-3.754;2023-04-05T03:06:12;94217.88;;;9.79;26.23
19783;BME280;10051;40.294;-3.754;2023-04-05T03:08:38;94278.25;;;10.29;25.42
19783;BME280;10051;40.294;-3.754;2023-04-05T03:11:09;94212.44;;;9.65;27.35
19783;BME280;10051;40.294;-3.754;2023-04-05T03:13:35;94259.50;;;10.01;26.68
19783;BME280;10051;40.294;-3.754;2023-04-05T03:16:08;94247.06;;;9.67;26.37
19783;BME280;10051;40.294;-3.754;2023-04-05T03:18:35;94172.75;;;9.21;28.80
19783;BME280;10051;40.294;-3.754;2023-04-05T03:21:00;94143.94;;;9.06;28.35
19783;BME280;10051;40.294;-3.754;2023-04-05T03:23:29;94262.25;;;9.80;26.66
19783;BME280;10051;40.294;-3.754;2023-04-05T03:25:59;94266.31;;;10.02;26.16
19783;BME280;10051;40.294;-3.754;2023-04-05T03:28:26;94277.97;;;10.31;25.97
19783;BME280;10051;40.294;-3.754;2023-04-05T03:30:52;94253.03;;;10.28;25.89
19783;BME280;10051;40.294;-3.754;2023-04-05T03:33:19;94251.84;;;10.50;25.11
19783;BME280;10051;40.294;-3.754;2023-04-05T03:35:47;94271.28;;;10.54;24.68
19783;BME280;10051;40.294;-3.754;2023-04-05T03:38:13;94271.56;;;10.52;24.04
19783;BME280;10051;40.294;-3.754;2023-04-05T03:40:39;94236.09;;;10.45;23.46
19783;BME280;10051;40.294;-3.754;2023-04-05T03:43:04;94227.88;;;10.56;23.18
19783;BME280;10051;40.294;-3.754;2023-04-05T03:45:30;94232.09;;;10.58;22.69
19783;BME280;10051;40.294;-3.754;2023-04-05T03:47:56;94270.47;;;10.59;22.99
19783;BME280;10051;40.294;-3.754;2023-04-05T03:50:25;94276.53;;;10.14;23.77
19783;BME280;10051;40.294;-3.754;2023-04-05T03:52:54;94271.06;;;10.00;23.99
19783;BME280;10051;40.294;-3.754;2023-04-05T03:55:19;94254.22;;;9.61;24.00
19783;BME280;10051;40.294;-3.754;2023-04-05T03:57:46;94237.66;;;9.56;24.00
19783;BME280;10051;40.294;-3.754;2023-04-05T04:00:12;94239.34;;;9.91;23.59
19783;BME280;10051;40.294;-3.754;2023-04-05T04:02:42;94252.81;;;10.19;23.41
19783;BME280;10051;40.294;-3.754;2023-04-05T04:05:09;94261.19;;;10.26;23.05
19783;BME280;10051;40.294;-3.754;2023-04-05T04:07:35;94246.91;;;9.98;23.29
19783;BME280;10051;40.294;-3.754;2023-04-05T04:10:02;94277.97;;;9.91;23.55
19783;BME280;10051;40.294;-3.754;2023-04-05T04:12:28;94276.84;;;9.97;23.54
19783;BME280;10051;40.294;-3.754;2023-04-05T04:14:53;94255.47;;;9.69;23.66
19783;BME280;10051;40.294;-3.754;2023-04-05T04:17:30;94260.78;;;9.53;23.95
19783;BME280;10051;40.294;-3.754;2023-04-05T04:19:56;94271.25;;;9.59;23.78
19783;BME280;10051;40.294;-3.754;2023-04-05T04:22:22;94251.16;;;9.33;24.12
19783;BME280;10051;40.294;-3.754;2023-04-05T04:24:51;94232.31;;;9.26;24.22
19783;BME280;10051;40.294;-3.754;2023-04-05T04:27:18;94254.78;;;9.43;23.84
19783;BME280;10051;40.294;-3.754;2023-04-05T04:29:46;94261.91;;;9.42;23.93
19783;BME280;10051;40.294;-3.754;2023-04-05T04:32:15;94249.84;;;9.31;23.61
19783;BME280;10051;40.294;-3.754;2023-04-05T04:34:41;94262.44;;;9.39;23.81
19783;BME280;10051;40.294;-3.754;2023-04-05T04:37:12;94251.41;;;9.42;23.94
19783;BME280;10051;40.294;-3.754;2023-04-05T04:39:44;94228.28;;;9.44;23.45
19783;BME280;10051;40.294;-3.754;2023-04-05T04:42:10;94257.56;;;9.72;23.40
19783;BME280;10051;40.294;-3.754;2023-04-05T04:44:36;94230.84;;;9.60;23.28
19783;BME280;10051;40.294;-3.754;2023-04-05T04:47:02;94233.97;;;9.62;23.56
19783;BME280;10051;40.294;-3.754;2023-04-05T04:49:28;94211.78;;;9.33;23.26
19783;BME280;10051;40.294;-3.754;2023-04-05T04:51:54;94239.34;;;9.36;23.57
19783;BME280;10051;40.294;-3.754;2023-04-05T04:54:22;94253.44;;;9.50;23.71
19783;BME280;10051;40.294;-3.754;2023-04-05T04:56:48;94264.00;;;9.40;23.94
19783;BME280;10051;40.294;-3.754;2023-04-05T04:59:13;94250.16;;;9.24;23.71
19783;BME280;10051;40.294;-3.754;2023-04-05T05:01:40;94266.63;;;9.45;23.90
19783;BME280;10051;40.294;-3.754;2023-04-05T05:04:05;94265.03;;;9.44;23.77
19783;BME280;10051;40.294;-3.754;2023-04-05T05:06:31;94254.59;;;9.18;24.31
19783;BME280;10051;40.294;-3.754;2023-04-05T05:08:57;94223.84;;;9.34;23.92
19783;BME280;10051;40.294;-3.754;2023-04-05T05:11:22;94246.09;;;9.52;23.65
19783;BME280;10051;40.294;-3.754;2023-04-05T05:13:50;94243.25;;;9.38;23.71
19783;BME280;10051;40.294;-3.754;2023-04-05T05:16:16;94255.09;;;9.31;24.39
19783;BME280;10051;40.294;-3.754;2023-04-05T05:18:44;94218.38;;;9.31;24.15
19783;BME280;10051;40.294;-3.754;2023-04-05T05:21:12;94252.19;;;9.37;24.03
19783;BME280;10051;40.294;-3.754;2023-04-05T05:23:37;94271.22;;;9.74;24.25
19783;BME280;10051;40.294;-3.754;2023-04-05T05:26:03;94266.56;;;9.56;24.14
19783;BME280;10051;40.294;-3.754;2023-04-05T05:28:28;94251.91;;;9.44;24.04
19783;BME280;10051;40.294;-3.754;2023-04-05T05:30:54;94242.06;;;9.05;25.05
19783;BME280;10051;40.294;-3.754;2023-04-05T05:33:20;94248.38;;;8.99;24.68
19783;BME280;10051;40.294;-3.754;2023-04-05T05:35:48;94255.41;;;9.14;24.78
19783;BME280;10051;40.294;-3.754;2023-04-05T05:38:15;94198.13;;;8.55;25.17
19783;BME280;10051;40.294;-3.754;2023-04-05T05:40:41;94253.63;;;8.88;25.11
19783;BME280;10051;40.294;-3.754;2023-04-05T05:43:07;94254.16;;;8.96;25.07
19783;BME280;10051;40.294;-3.754;2023-04-05T05:45:33;94271.22;;;8.62;25.21
19783;BME280;10051;40.294;-3.754;2023-04-05T05:47:58;94259.41;;;8.70;25.56
19783;BME280;10051;40.294;-3.754;2023-04-05T05:50:24;94283.53;;;8.92;25.20
19783;BME280;10051;40.294;-3.754;2023-04-05T05:52:49;94284.59;;;8.60;25.71
19783;BME280;10051;40.294;-3.754;2023-04-05T05:55:15;94289.31;;;8.58;25.91
19783;BME280;10051;40.294;-3.754;2023-04-05T05:57:41;94272.75;;;8.84;24.97
19783;BME280;10051;40.294;-3.754;2023-04-05T06:00:07;94286.09;;;9.18;24.67
19783;BME280;10051;40.294;-3.754;2023-04-05T06:02:33;94297.06;;;9.41;24.47
19783;BME280;10051;40.294;-3.754;2023-04-05T06:04:59;94295.72;;;9.44;24.79
19783;BME280;10051;40.294;-3.754;2023-04-05T06:07:26;94264.13;;;8.99;24.72
19783;BME280;10051;40.294;-3.754;2023-04-05T06:09:52;94303.44;;;8.68;25.77
19783;BME280;10051;40.294;-3.754;2023-04-05T06:12:20;94306.03;;;8.42;26.01
19783;BME280;10051;40.294;-3.754;2023-04-05T06:14:45;94290.38;;;8.57;25.78
19783;BME280;10051;40.294;-3.754;2023-04-05T06:17:11;94276.97;;;8.48;25.67
19783;BME280;10051;40.294;-3.754;2023-04-05T06:19:37;94300.31;;;8.81;25.95
19783;BME280;10051;40.294;-3.754;2023-04-05T06:22:02;94230.84;;;8.53;25.68
19783;BME280;10051;40.294;-3.754;2023-04-05T06:24:28;94294.75;;;9.19;25.46
19783;BME280;10051;40.294;-3.754;2023-04-05T06:26:57;94302.84;;;9.38;24.66
19783;BME280;10051;40.294;-3.754;2023-04-05T06:29:22;94274.50;;;9.45;24.45
19783;BME280;10051;40.294;-3.754;2023-04-05T06:31:48;94307.69;;;9.76;23.97
19783;BME280;10051;40.294;-3.754;2023-04-05T06:34:14;94304.31;;;9.70;23.88
19783;BME280;10051;40.294;-3.754;2023-04-05T06:36:39;94272.34;;;9.52;23.92
19783;BME280;10051;40.294;-3.754;2023-04-05T06:39:05;94273.31;;;9.72;23.10
19783;BME280;10051;40.294;-3.754;2023-04-05T06:41:31;94311.66;;;10.23;23.56
19783;BME280;10051;40.294;-3.754;2023-04-05T06:43:56;94298.97;;;10.36;23.12
19783;BME280;10051;40.294;-3.754;2023-04-05T06:46:22;94282.38;;;10.46;22.90
19783;BME280;10051;40.294;-3.754;2023-04-05T06:48:47;94278.22;;;10.74;22.59
19783;BME280;10051;40.294;-3.754;2023-04-05T06:51:14;94308.31;;;11.22;22.70
19783;BME280;10051;40.294;-3.754;2023-04-05T06:53:39;94289.13;;;11.45;22.29
19783;BME280;10051;40.294;-3.754;2023-04-05T06:56:06;94301.56;;;11.83;21.98
19783;BME280;10051;40.294;-3.754;2023-04-05T06:58:31;94319.94;;;12.13;22.28
19783;BME280;10051;40.294;-3.754;2023-04-05T07:00:59;94306.41;;;12.39;21.60
19783;BME280;10051;40.294;-3.754;2023-04-05T07:03:25;94321.88;;;12.45;21.38
19783;BME280;10051;40.294;-3.754;2023-04-05T07:05:53;94323.16;;;12.48;21.74
19783;BME280;10051;40.294;-3.754;2023-04-05T07:08:22;94326.59;;;12.48;21.49
19783;BME280;10051;40.294;-3.754;2023-04-05T07:10:49;94334.94;;;12.56;20.50
19783;BME280;10051;40.294;-3.754;2023-04-05T07:13:15;94333.69;;;12.67;20.85
19783;BME280;10051;40.294;-3.754;2023-04-05T07:15:44;94333.00;;;12.61;21.14
19783;BME280;10051;40.294;-3.754;2023-04-05T07:18:10;94321.13;;;12.59;21.46
19783;BME280;10051;40.294;-3.754;2023-04-05T07:20:36;94328.25;;;12.77;21.23
19783;BME280;10051;40.294;-3.754;2023-04-05T07:23:03;94303.44;;;12.78;20.55
19783;BME280;10051;40.294;-3.754;2023-04-05T07:25:30;94318.28;;;13.07;20.01
19783;BME280;10051;40.294;-3.754;2023-04-05T07:27:56;94319.19;;;13.17;19.81
19783;BME280;10051;40.294;-3.754;2023-04-05T07:30:22;94326.88;;;13.46;19.69
19783;BME280;10051;40.294;-3.754;2023-04-05T07:32:47;94331.28;;;13.51;19.86
19783;BME280;10051;40.294;-3.754;2023-04-05T07:35:13;94343.94;;;13.68;19.55
19783;BME280;10051;40.294;-3.754;2023-04-05T07:37:38;94342.16;;;13.77;19.31
19783;BME280;10051;40.294;-3.754;2023-04-05T07:40:05;94318.47;;;13.58;20.06
19783;BME280;10051;40.294;-3.754;2023-04-05T07:42:31;94342.38;;;13.81;18.95
19783;BME280;10051;40.294;-3.754;2023-04-05T07:44:58;94323.16;;;13.61;19.31
19783;BME280;10051;40.294;-3.754;2023-04-05T07:47:23;94341.19;;;14.01;18.89
19783;BME280;10051;40.294;-3.754;2023-04-05T07:49:49;94306.22;;;13.76;18.76
19783;BME280;10051;40.294;-3.754;2023-04-05T07:52:14;94340.22;;;13.83;18.75
19783;BME280;10051;40.294;-3.754;2023-04-05T07:54:40;94346.06;;;14.08;17.83
19783;BME280;10051;40.294;-3.754;2023-04-05T07:57:08;94349.97;;;13.96;18.13
19783;BME280;10051;40.294;-3.754;2023-04-05T07:59:36;94325.72;;;13.80;17.79
19783;BME280;10051;40.294;-3.754;2023-04-05T08:02:02;94331.41;;;13.74;17.81
19783;BME280;10051;40.294;-3.754;2023-04-05T08:04:28;94350.06;;;14.19;17.91
19783;BME280;10051;40.294;-3.754;2023-04-05T08:06:53;94349.78;;;13.51;18.30
19783;BME280;10051;40.294;-3.754;2023-04-05T08:09:19;94346.19;;;13.28;17.75
19783;BME280;10051;40.294;-3.754;2023-04-05T08:11:44;94355.47;;;13.25;17.58
19783;BME280;10051;40.294;-3.754;2023-04-05T08:14:10;94333.09;;;13.36;17.10
19783;BME280;10051;40.294;-3.754;2023-04-05T08:16:35;94341.97;;;13.46;17.76
19783;BME280;10051;40.294;-3.754;2023-04-05T08:19:01;94344.34;;;13.28;16.87
19783;BME280;10051;40.294;-3.754;2023-04-05T08:21:26;94310.94;;;13.04;16.68
19783;BME280;10051;40.294;-3.754;2023-04-05T08:23:52;94350.19;;;13.72;16.49
19783;BME280;10051;40.294;-3.754;2023-04-05T08:26:18;94354.50;;;13.82;16.10
19783;BME280;10051;40.294;-3.754;2023-04-05T08:28:43;94339.03;;;13.75;15.38
19783;BME280;10051;40.294;-3.754;2023-04-05T08:31:11;94320.41;;;13.94;15.33
19783;BME280;10051;40.294;-3.754;2023-04-05T08:33:37;94351.44;;;14.31;15.85
19783;BME280;10051;40.294;-3.754;2023-04-05T08:36:04;94358.25;;;14.46;14.86
19783;BME280;10051;40.294;-3.754;2023-04-05T08:38:30;94364.19;;;14.51;15.11
19783;BME280;10051;40.294;-3.754;2023-04-05T08:41:05;94282.91;;;13.92;15.20
19783;BME280;10051;40.294;-3.754;2023-04-05T08:46:08;94337.38;;;14.44;14.35
19783;BME280;10051;40.294;-3.754;2023-04-05T08:48:34;94371.72;;;14.72;14.72
19783;BME280;10051;40.294;-3.754;2023-04-05T08:51:00;94355.56;;;14.96;14.34
19783;BME280;10051;40.294;-3.754;2023-04-05T08:53:26;94368.28;;;15.40;14.49
19783;BME280;10051;40.294;-3.754;2023-04-05T08:55:55;94371.47;;;15.51;14.64
19783;BME280;10051;40.294;-3.754;2023-04-05T08:58:22;94328.28;;;14.96;13.85
19783;BME280;10051;40.294;-3.754;2023-04-05T09:00:49;94364.53;;;15.09;14.74
19783;BME280;10051;40.294;-3.754;2023-04-05T09:03:25;94364.00;;;14.98;14.37
19783;BME280;10051;40.294;-3.754;2023-04-05T09:05:52;94350.91;;;15.02;14.46
19783;BME280;10051;40.294;-3.754;2023-04-05T09:08:18;94372.56;;;15.27;14.20
19783;BME280;10051;40.294;-3.754;2023-04-05T09:10:48;94349.34;;;15.01;13.90
19783;BME280;10051;40.294;-3.754;2023-04-05T09:13:16;94328.41;;;15.13;13.94
19783;BME280;10051;40.294;-3.754;2023-04-05T09:15:42;94343.22;;;15.14;14.21
19783;BME280;10051;40.294;-3.754;2023-04-05T09:18:10;94327.41;;;15.00;13.66
19783;BME280;10051;40.294;-3.754;2023-04-05T09:20:36;94362.94;;;15.31;13.47
19783;BME280;10051;40.294;-3.754;2023-04-05T09:23:03;94336.31;;;15.36;13.47
19783;BME280;10051;40.294;-3.754;2023-04-05T09:27:58;94355.94;;;16.07;12.68
19783;BME280;10051;40.294;-3.754;2023-04-05T09:30:25;94358.09;;;15.87;12.95
19783;BME280;10051;40.294;-3.754;2023-04-05T09:32:52;94356.84;;;15.94;12.97
19783;BME280;10051;40.294;-3.754;2023-04-05T09:35:20;94356.75;;;16.08;13.84
19783;BME280;10051;40.294;-3.754;2023-04-05T09:38:02;94330.16;;;15.90;12.65
19783;BME280;10051;40.294;-3.754;2023-04-05T09:40:48;94342.25;;;16.23;13.07
19783;BME280;10051;40.294;-3.754;2023-04-05T09:43:36;94336.00;;;16.36;12.69
19783;BME280;10051;40.294;-3.754;2023-04-05T09:46:02;94348.22;;;16.46;12.77
19783;BME280;10051;40.294;-3.754;2023-04-05T09:48:49;94300.56;;;16.23;12.55
19783;BME280;10051;40.294;-3.754;2023-04-05T09:51:16;94352.75;;;16.72;12.58
19783;BME280;10051;40.294;-3.754;2023-04-05T09:54:08;94359.44;;;16.60;12.19
19783;BME280;10051;40.294;-3.754;2023-04-05T09:56:36;94347.91;;;16.83;12.78
19783;BME280;10051;40.294;-3.754;2023-04-05T09:59:11;94337.63;;;16.72;12.38
19783;BME280;10051;40.294;-3.754;2023-04-05T10:01:38;94360.56;;;17.12;12.51
19783;BME280;10051;40.294;-3.754;2023-04-05T10:04:07;94351.50;;;17.13;11.80
19783;BME280;10051;40.294;-3.754;2023-04-05T10:06:37;94336.47;;;17.35;11.33
19783;BME280;10051;40.294;-3.754;2023-04-05T10:09:04;94335.91;;;17.59;10.88
19783;BME280;10051;40.294;-3.754;2023-04-05T10:11:33;94339.97;;;18.04;10.93
19783;BME280;10051;40.294;-3.754;2023-04-05T10:14:01;94345.28;;;18.04;10.32
19783;BME280;10051;40.294;-3.754;2023-04-05T10:19:54;94334.44;;;17.71;11.12
19783;BME280;10051;40.294;-3.754;2023-04-05T10:22:44;94330.66;;;17.80;10.98
19783;BME280;10051;40.294;-3.754;2023-04-05T10:28:05;94336.69;;;17.98;10.69
19783;BME280;10051;40.294;-3.754;2023-04-05T10:30:40;94332.78;;;18.05;10.60
19783;BME280;10051;40.294;-3.754;2023-04-05T10:33:21;94337.41;;;18.17;10.86
19783;BME280;10051;40.294;-3.754;2023-04-05T10:41:12;94335.88;;;18.58;10.83
19783;BME280;10051;40.294;-3.754;2023-04-05T10:43:45;94330.00;;;18.43;10.68
19783;BME280;10051;40.294;-3.754;2023-04-05T10:46:10;94293.16;;;18.03;10.75
19783;BME280;10051;40.294;-3.754;2023-04-05T10:51:25;94323.41;;;18.50;10.50
19783;BME280;10051;40.294;-3.754;2023-04-05T10:53:55;94328.34;;;18.60;11.14
19783;BME280;10051;40.294;-3.754;2023-04-05T10:56:21;94265.81;;;18.24;11.31
19783;BME280;10051;40.294;-3.754;2023-04-05T10:58:48;94325.22;;;18.58;10.81
19783;BME280;10051;40.294;-3.754;2023-04-05T11:01:16;94304.38;;;18.60;10.44
19783;BME280;10051;40.294;-3.754;2023-04-05T11:03:49;94315.19;;;18.97;10.45
19783;BME280;10051;40.294;-3.754;2023-04-05T11:06:20;94317.13;;;19.09;9.90
19783;BME280;10051;40.294;-3.754;2023-04-05T11:08:47;94255.59;;;18.68;10.00
19783;BME280;10051;40.294;-3.754;2023-04-05T11:11:15;94295.94;;;19.13;10.33
19783;BME280;10051;40.294;-3.754;2023-04-05T11:14:02;94312.16;;;19.20;11.04
19783;BME280;10051;40.294;-3.754;2023-04-05T11:16:40;94311.06;;;19.34;9.95
19783;BME280;10051;40.294;-3.754;2023-04-05T11:19:10;94308.81;;;19.23;10.85
19783;BME280;10051;40.294;-3.754;2023-04-05T11:21:35;94272.63;;;19.22;11.38
19783;BME280;10051;40.294;-3.754;2023-04-05T11:24:08;94292.91;;;19.60;10.01
19783;BME280;10051;40.294;-3.754;2023-04-05T11:29:08;94307.09;;;19.52;9.97
19783;BME280;10051;40.294;-3.754;2023-04-05T11:31:34;94301.44;;;19.54;10.46
19783;BME280;10051;40.294;-3.754;2023-04-05T11:34:02;94293.56;;;19.57;9.79
19783;BME280;10051;40.294;-3.754;2023-04-05T11:41:49;94281.09;;;19.74;10.49
19783;BME280;10051;40.294;-3.754;2023-04-05T11:44:17;94265.91;;;19.74;9.49
19783;BME280;10051;40.294;-3.754;2023-04-05T11:46:50;94291.59;;;19.91;10.39
19783;BME280;10051;40.294;-3.754;2023-04-05T11:49:16;94263.53;;;19.85;8.89
19783;BME280;10051;40.294;-3.754;2023-04-05T11:51:42;94275.66;;;20.20;9.27
19783;BME280;10051;40.294;-3.754;2023-04-05T11:54:08;94272.16;;;20.44;9.41
19783;BME280;10051;40.294;-3.754;2023-04-05T11:56:34;94224.16;;;20.19;10.04
19783;BME280;10051;40.294;-3.754;2023-04-05T11:59:00;94268.69;;;20.44;9.50
19783;BME280;10051;40.294;-3.754;2023-04-05T12:01:28;94272.75;;;20.54;10.01
19783;BME280;10051;40.294;-3.754;2023-04-05T12:03:55;94239.16;;;20.24;10.28
19783;BME280;10051;40.294;-3.754;2023-04-05T12:06:22;94209.38;;;20.10;10.51
19783;BME280;10051;40.294;-3.754;2023-04-05T12:08:49;94223.38;;;20.19;9.01
19783;BME280;10051;40.294;-3.754;2023-04-05T12:11:16;94265.56;;;20.42;9.87
19783;BME280;10051;40.294;-3.754;2023-04-05T12:13:47;94254.72;;;20.63;10.58
19783;BME280;10051;40.294;-3.754;2023-04-05T12:16:13;94257.00;;;20.77;10.47
19783;BME280;10051;40.294;-3.754;2023-04-05T12:18:39;94264.72;;;20.94;9.33
19783;BME280;10051;40.294;-3.754;2023-04-05T12:21:07;94249.88;;;20.81;9.60
19783;BME280;10051;40.294;-3.754;2023-04-05T12:23:34;94244.75;;;21.04;8.80
19783;BME280;10051;40.294;-3.754;2023-04-05T12:26:01;94239.25;;;21.29;9.16
19783;BME280;10051;40.294;-3.754;2023-04-05T12:28:56;94250.13;;;21.36;9.43
19783;BME280;10051;40.294;-3.754;2023-04-05T12:34:04;94229.84;;;21.35;9.61
19783;BME280;10051;40.294;-3.754;2023-04-05T12:36:30;94230.78;;;21.43;9.05
19783;BME280;10051;40.294;-3.754;2023-04-05T12:38:56;94219.59;;;21.37;9.23
19783;BME280;10051;40.294;-3.754;2023-04-05T12:41:29;94219.84;;;21.32;9.40
19783;BME280;10051;40.294;-3.754;2023-04-05T12:43:55;94234.34;;;21.63;9.41
19783;BME280;10051;40.294;-3.754;2023-04-05T12:46:42;94232.41;;;21.48;10.52
19783;BME280;10051;40.294;-3.754;2023-04-05T12:49:14;94217.94;;;21.17;9.18
19783;BME280;10051;40.294;-3.754;2023-04-05T12:51:41;94229.75;;;21.16;8.57
19783;BME280;10051;40.294;-3.754;2023-04-05T12:54:11;94227.34;;;21.10;8.62
19783;BME280;10051;40.294;-3.754;2023-04-05T12:56:38;94209.16;;;21.32;9.39
19783;BME280;10051;40.294;-3.754;2023-04-05T12:59:07;94172.97;;;21.54;10.36
19783;BME280;10051;40.294;-3.754;2023-04-05T13:01:33;94210.91;;;22.12;8.83
19783;BME280;10051;40.294;-3.754;2023-04-05T13:03:59;94163.84;;;22.11;9.19
19783;BME280;10051;40.294;-3.754;2023-04-05T13:06:29;94204.19;;;22.57;8.38
19783;BME280;10051;40.294;-3.754;2023-04-05T13:08:55;94159.31;;;21.76;7.87
19783;BME280;10051;40.294;-3.754;2023-04-05T13:11:22;94204.13;;;21.98;7.95
19783;BME280;10051;40.294;-3.754;2023-04-05T13:13:48;94195.69;;;21.96;7.34
19783;BME280;10051;40.294;-3.754;2023-04-05T13:16:13;94188.28;;;22.09;8.24
19783;BME280;10051;40.294;-3.754;2023-04-05T13:18:39;94172.75;;;22.15;7.82
19783;BME280;10051;40.294;-3.754;2023-04-05T13:21:05;94167.50;;;22.03;8.57
19783;BME280;10051;40.294;-3.754;2023-04-05T13:23:37;94187.03;;;22.42;9.53
19783;BME280;10051;40.294;-3.754;2023-04-05T13:26:05;94178.25;;;22.62;9.09
19783;BME280;10051;40.294;-3.754;2023-04-05T13:28:31;94168.06;;;22.71;8.09
19783;BME280;10051;40.294;-3.754;2023-04-05T13:30:57;94147.38;;;22.48;7.93
19783;BME280;10051;40.294;-3.754;2023-04-05T13:33:22;94165.19;;;22.40;7.39
19783;BME280;10051;40.294;-3.754;2023-04-05T13:35:48;94166.19;;;22.32;7.62
19783;BME280;10051;40.294;-3.754;2023-04-05T13:38:13;94142.44;;;22.11;7.30